createdAt,value
2019-05-20T00:01:35.808Z,9.72
2019-05-20T00:04:06.414Z,9.66
2019-05-20T00:06:36.767Z,9.61
2019-05-20T00:09:07.436Z,9.59
2019-05-20T00:11:39.882Z,9.58
2019-05-20T00:14:10.222Z,9.56
2019-05-20T00:16:42.942Z,9.54
2019-05-20T00:19:13.191Z,9.49
2019-05-20T00:21:43.530Z,9.53
2019-05-20T00:24:16.547Z,9.53
2019-05-20T00:26:46.850Z,9.50
2019-05-20T00:29:17.218Z,9.47
2019-05-20T00:31:47.897Z,9.44
2019-05-20T00:34:32.708Z,9.44
2019-05-20T00:36:50.260Z,9.43
2019-05-20T00:39:22.897Z,9.42
2019-05-20T00:41:53.217Z,9.37
2019-05-20T00:44:25.351Z,9.38
2019-05-20T00:46:56.599Z,9.37
2019-05-20T00:49:28.591Z,9.36
2019-05-20T00:51:58.960Z,9.36
2019-05-20T00:54:29.914Z,9.39
2019-05-20T00:57:01.230Z,9.45
2019-05-20T00:59:32.263Z,9.49
2019-05-20T01:02:02.585Z,9.43
2019-05-20T01:04:33.174Z,9.38
2019-05-20T01:07:06.069Z,9.32
2019-05-20T01:09:36.366Z,9.27
2019-05-20T01:12:08.081Z,9.35
2019-05-20T01:14:39.321Z,9.43
2019-05-20T01:17:09.621Z,9.36
2019-05-20T01:19:39.930Z,9.22
2019-05-20T01:22:10.273Z,9.16
2019-05-20T01:24:42.087Z,9.13
2019-05-20T01:27:12.403Z,9.10
2019-05-20T01:29:43.555Z,9.13
2019-05-20T01:32:14.242Z,9.15
2019-05-20T01:34:46.603Z,9.11
2019-05-20T01:37:16.944Z,9.16
2019-05-20T01:39:47.718Z,9.16
2019-05-20T01:42:18.408Z,9.16
2019-05-20T01:44:49.160Z,9.17
2019-05-20T01:47:22.423Z,9.17
2019-05-20T01:49:53.769Z,9.19
2019-05-20T01:52:24.071Z,9.20
2019-05-20T01:54:54.497Z,9.19
2019-05-20T01:57:27.205Z,9.23
2019-05-20T01:59:57.532Z,9.27
2019-05-20T02:02:28.706Z,9.34
2019-05-20T02:04:59.044Z,9.31
2019-05-20T02:07:29.315Z,9.31
2019-05-20T02:09:59.654Z,9.37
2019-05-20T02:12:31.455Z,9.37
2019-05-20T02:15:08.688Z,9.40
2019-05-20T02:17:39.020Z,9.47
2019-05-20T02:20:09.859Z,9.52
2019-05-20T02:22:40.258Z,9.54
2019-05-20T02:25:10.691Z,9.56
2019-05-20T02:27:42.133Z,9.61
2019-05-20T02:30:13.882Z,9.67
2019-05-20T02:32:44.298Z,9.71
2019-05-20T02:35:18.157Z,9.74
2019-05-20T02:37:50.696Z,9.80
2019-05-20T02:40:21.013Z,9.83
2019-05-20T02:42:51.279Z,9.93
2019-05-20T02:45:21.704Z,10.04
2019-05-20T02:47:52.479Z,10.02
2019-05-20T02:50:23.849Z,10.06
2019-05-20T02:52:55.513Z,10.09
2019-05-20T02:55:26.960Z,10.13
2019-05-20T02:57:57.601Z,10.16
2019-05-20T03:00:28.374Z,10.20
2019-05-20T03:02:59.417Z,10.26
2019-05-20T03:05:30.556Z,10.32
2019-05-20T03:08:01.450Z,10.39
2019-05-20T03:10:31.780Z,10.54
2019-05-20T03:13:02.139Z,10.58
2019-05-20T03:15:33.326Z,10.62
2019-05-20T03:18:04.581Z,10.67
2019-05-20T03:20:34.893Z,10.74
2019-05-20T03:23:05.206Z,10.83
2019-05-20T03:25:37.775Z,10.92
2019-05-20T03:28:08.760Z,11.00
2019-05-20T03:30:39.534Z,10.93
2019-05-20T03:33:12.169Z,11.04
2019-05-20T03:35:42.797Z,11.22
2019-05-20T03:38:13.521Z,11.14
2019-05-20T03:40:43.834Z,11.18
2019-05-20T03:43:14.181Z,11.11
2019-05-20T03:45:44.901Z,11.16
2019-05-20T03:48:15.184Z,11.17
2019-05-20T03:50:45.753Z,11.12
2019-05-20T03:53:16.845Z,11.20
2019-05-20T03:55:48.174Z,11.18
2019-05-20T03:58:18.554Z,11.16
2019-05-20T04:00:49.410Z,11.20
2019-05-20T04:03:19.699Z,11.22
2019-05-20T04:05:50.187Z,11.31
2019-05-20T04:08:20.514Z,11.32
2019-05-20T04:10:56.199Z,11.38
2019-05-20T04:13:26.547Z,11.44
2019-05-20T04:15:56.860Z,11.48
2019-05-20T04:18:27.547Z,11.60
2019-05-20T04:20:57.903Z,11.65
2019-05-20T04:23:28.214Z,11.64
2019-05-20T04:25:59.958Z,11.81
2019-05-20T04:28:30.738Z,11.88
2019-05-20T04:31:04.369Z,11.91
2019-05-20T04:33:34.694Z,12.01
2019-05-20T04:36:06.468Z,12.13
2019-05-20T04:38:37.073Z,12.12
2019-05-20T04:41:09.002Z,12.27
2019-05-20T04:43:39.867Z,12.43
2019-05-20T04:46:13.382Z,12.39
2019-05-20T04:48:44.152Z,12.52
2019-05-20T04:51:14.805Z,12.82
2019-05-20T04:53:47.400Z,12.86
2019-05-20T04:56:18.340Z,12.92
2019-05-20T04:58:53.763Z,12.85
2019-05-20T05:01:24.128Z,12.93
2019-05-20T05:03:56.309Z,12.99
2019-05-20T05:06:26.604Z,13.18
2019-05-20T05:08:56.981Z,13.16
2019-05-20T05:11:37.591Z,13.05
2019-05-20T05:14:07.987Z,13.09
2019-05-20T05:16:38.386Z,13.29
2019-05-20T05:19:08.659Z,13.42
2019-05-20T05:21:39.764Z,13.74
2019-05-20T05:24:10.928Z,13.91
2019-05-20T05:26:41.585Z,13.98
2019-05-20T05:29:13.111Z,14.01
2019-05-20T05:31:43.886Z,14.09
2019-05-20T05:34:16.556Z,14.24
2019-05-20T05:36:47.687Z,14.23
2019-05-20T05:39:21.470Z,14.12
2019-05-20T05:41:52.157Z,14.39
2019-05-20T05:44:22.581Z,14.42
2019-05-20T05:46:55.601Z,14.57
2019-05-20T05:49:38.998Z,14.64
2019-05-20T05:52:09.399Z,14.83
2019-05-20T05:54:42.091Z,15.06
2019-05-20T05:57:12.442Z,15.38
2019-05-20T05:59:43.095Z,15.54
2019-05-20T06:02:14.908Z,15.88
2019-05-20T06:04:45.253Z,15.99
2019-05-20T06:07:16.830Z,15.95
2019-05-20T06:09:47.171Z,16.07
2019-05-20T06:12:19.039Z,16.13
2019-05-20T06:14:49.368Z,16.12
2019-05-20T06:17:19.771Z,16.20
2019-05-20T06:19:50.082Z,16.32
2019-05-20T06:22:20.742Z,17.43
2019-05-20T06:24:51.844Z,17.31
2019-05-20T06:27:22.342Z,17.03
2019-05-20T06:29:54.827Z,16.76
2019-05-20T06:32:28.541Z,16.58
2019-05-20T06:34:59.217Z,16.33
2019-05-20T06:37:31.544Z,16.27
2019-05-20T06:40:01.972Z,16.34
2019-05-20T06:42:32.696Z,16.51
2019-05-20T06:45:03.399Z,16.86
2019-05-20T06:47:36.445Z,17.14
2019-05-20T06:50:10.181Z,17.37
2019-05-20T06:52:40.504Z,17.64
2019-05-20T06:55:11.080Z,17.92
2019-05-20T06:57:41.386Z,18.33
2019-05-20T07:00:13.579Z,19.64
2019-05-20T07:02:44.044Z,20.92
2019-05-20T07:05:16.579Z,20.90
2019-05-20T07:07:49.193Z,20.11
2019-05-20T07:10:22.795Z,19.35
2019-05-20T07:12:54.283Z,18.76
2019-05-20T07:15:24.815Z,18.56
2019-05-20T07:17:55.142Z,18.48
2019-05-20T07:20:25.422Z,18.28
2019-05-20T07:22:58.999Z,18.14
2019-05-20T07:25:30.927Z,18.23
2019-05-20T07:28:01.214Z,18.07
2019-05-20T07:30:32.546Z,18.21
2019-05-20T07:33:04.054Z,18.09
2019-05-20T07:35:34.380Z,18.07
2019-05-20T07:38:04.706Z,18.46
2019-05-20T07:40:35.797Z,18.65
2019-05-20T07:43:06.389Z,18.65
2019-05-20T07:45:38.756Z,18.41
2019-05-20T07:48:09.090Z,18.42
2019-05-20T07:50:41.705Z,18.82
2019-05-20T07:53:13.879Z,19.10
2019-05-20T07:55:53.275Z,19.42
2019-05-20T07:58:26.961Z,19.63
2019-05-20T08:00:57.697Z,19.63
2019-05-20T08:03:28.323Z,19.88
2019-05-20T08:05:58.986Z,19.95
2019-05-20T08:08:30.133Z,19.81
2019-05-20T08:11:02.310Z,19.87
2019-05-20T08:13:34.310Z,19.90
2019-05-20T08:16:05.047Z,19.95
2019-05-20T08:18:35.328Z,20.00
2019-05-20T08:21:06.162Z,20.10
2019-05-20T08:23:36.607Z,20.05
2019-05-20T08:26:07.108Z,20.42
2019-05-20T08:28:37.792Z,20.99
2019-05-20T08:31:08.138Z,21.29
2019-05-20T08:33:38.857Z,21.67
2019-05-20T08:36:10.243Z,21.37
2019-05-20T08:38:40.642Z,21.83
2019-05-20T08:41:11.246Z,22.47
2019-05-20T08:43:41.533Z,22.48
2019-05-20T08:46:12.433Z,22.59
2019-05-20T08:48:42.744Z,22.45
2019-05-20T08:51:13.374Z,22.10
2019-05-20T08:53:47.532Z,22.28
2019-05-20T08:56:18.017Z,22.47
2019-05-20T08:58:48.323Z,22.80
2019-05-20T09:01:18.833Z,22.35
2019-05-20T09:04:03.389Z,23.02
2019-05-20T09:06:33.780Z,22.79
2019-05-20T09:09:06.989Z,23.92
2019-05-20T09:11:37.350Z,24.48
2019-05-20T09:14:10.818Z,24.87
2019-05-20T09:16:43.190Z,25.58
2019-05-20T09:19:17.472Z,26.03
2019-05-20T09:21:47.757Z,27.05
2019-05-20T09:24:19.796Z,26.60
2019-05-20T09:26:50.454Z,26.61
2019-05-20T09:29:23.091Z,26.78
2019-05-20T09:31:53.372Z,27.56
2019-05-20T09:34:24.371Z,27.63
2019-05-20T09:36:57.504Z,26.91
2019-05-20T09:39:27.906Z,27.39
2019-05-20T09:41:58.214Z,27.84
2019-05-20T09:44:28.499Z,27.80
2019-05-20T09:47:00.465Z,27.42
2019-05-20T09:49:31.619Z,28.73
2019-05-20T09:52:03.674Z,28.87
2019-05-20T09:54:40.181Z,28.82
2019-05-20T09:57:13.394Z,27.78
2019-05-20T09:59:43.981Z,28.03
2019-05-20T10:02:14.639Z,28.02
2019-05-20T10:04:44.958Z,27.33
2019-05-20T10:07:15.308Z,26.72
2019-05-20T10:09:45.593Z,26.68
2019-05-20T10:12:16.643Z,27.21
2019-05-20T10:14:46.825Z,26.57
2019-05-20T10:17:17.148Z,26.72
2019-05-20T10:19:50.233Z,27.50
2019-05-20T10:22:21.014Z,27.01
2019-05-20T10:24:51.332Z,28.73
2019-05-20T10:27:25.666Z,30.16
2019-05-20T10:29:56.621Z,30.79
2019-05-20T10:32:26.984Z,32.43
2019-05-20T10:34:59.758Z,33.26
2019-05-20T10:37:30.176Z,33.95
2019-05-20T10:40:00.446Z,34.71
2019-05-20T10:42:31.874Z,32.95
2019-05-20T10:45:02.673Z,30.85
2019-05-20T10:47:33.632Z,29.91
2019-05-20T10:50:04.454Z,29.87
2019-05-20T10:52:36.429Z,30.70
2019-05-20T10:55:07.310Z,29.58
2019-05-20T10:57:38.433Z,30.77
2019-05-20T11:00:09.711Z,31.03
2019-05-20T11:02:40.038Z,31.57
2019-05-20T11:05:10.840Z,31.24
2019-05-20T11:07:41.570Z,30.86
2019-05-20T11:10:12.502Z,31.48
2019-05-20T11:12:44.213Z,32.50
2019-05-20T11:15:14.670Z,33.28
2019-05-20T11:17:44.987Z,33.42
2019-05-20T11:20:18.212Z,33.65
2019-05-20T11:22:51.325Z,32.77
2019-05-20T11:25:21.690Z,32.42
2019-05-20T11:27:56.141Z,32.04
2019-05-20T11:30:26.466Z,32.37
2019-05-20T11:32:56.795Z,32.42
2019-05-20T11:35:27.434Z,33.42
2019-05-20T11:37:57.834Z,32.75
2019-05-20T11:40:28.125Z,32.77
2019-05-20T11:42:58.755Z,33.71
2019-05-20T11:45:29.362Z,32.48
2019-05-20T11:47:59.669Z,32.22
2019-05-20T11:50:29.856Z,32.56
2019-05-20T11:53:02.376Z,32.20
2019-05-20T11:55:32.746Z,32.56
2019-05-20T11:58:15.352Z,32.94
2019-05-20T12:00:35.156Z,32.14
2019-05-20T12:03:07.210Z,31.62
2019-05-20T12:05:37.810Z,32.78
2019-05-20T12:08:09.158Z,33.03
2019-05-20T12:10:40.515Z,32.53
2019-05-20T12:13:13.285Z,32.20
2019-05-20T12:15:44.169Z,31.67
2019-05-20T12:18:14.869Z,32.27
2019-05-20T12:20:46.063Z,31.49
2019-05-20T12:23:16.385Z,31.87
2019-05-20T12:25:46.910Z,31.04
2019-05-20T12:28:18.243Z,31.11
2019-05-20T12:30:48.856Z,30.15
2019-05-20T12:33:20.007Z,30.44
2019-05-20T12:35:50.442Z,30.72
2019-05-20T12:38:22.572Z,30.14
2019-05-20T12:40:53.749Z,30.37
2019-05-20T12:43:24.048Z,30.37
2019-05-20T12:45:54.383Z,28.80
2019-05-20T12:48:25.428Z,28.45
2019-05-20T12:50:55.729Z,28.05
2019-05-20T12:53:26.604Z,27.85
2019-05-20T12:55:56.989Z,28.78
2019-05-20T12:58:28.013Z,29.87
2019-05-20T13:01:03.198Z,30.64
2019-05-20T13:03:36.833Z,31.08
2019-05-20T13:06:08.985Z,30.76
2019-05-20T13:08:42.205Z,29.81
2019-05-20T13:11:13.940Z,30.09
2019-05-20T13:13:45.358Z,30.14
2019-05-20T13:16:16.847Z,30.90
2019-05-20T13:18:55.821Z,30.90
2019-05-20T13:21:22.820Z,31.77
2019-05-20T13:23:55.287Z,31.00
2019-05-20T13:26:27.301Z,30.60
2019-05-20T13:29:07.273Z,30.99
2019-05-20T13:31:43.008Z,30.35
2019-05-20T13:34:14.147Z,30.64
2019-05-20T13:36:44.484Z,30.64
2019-05-20T13:39:17.214Z,30.68
2019-05-20T13:41:49.536Z,30.68
2019-05-20T13:44:19.834Z,30.58
2019-05-20T13:46:50.148Z,29.83
2019-05-20T13:49:20.835Z,29.80
2019-05-20T13:51:52.733Z,29.93
2019-05-20T13:54:25.554Z,29.95
2019-05-20T13:56:55.932Z,29.29
2019-05-20T13:59:27.447Z,30.09
2019-05-20T14:01:58.627Z,29.08
2019-05-20T14:04:28.896Z,28.80
2019-05-20T14:06:59.286Z,29.62
2019-05-20T14:09:31.225Z,29.94
2019-05-20T14:12:01.650Z,30.14
2019-05-20T14:14:33.299Z,29.05
2019-05-20T14:17:05.216Z,29.21
2019-05-20T14:19:35.805Z,29.17
2019-05-20T14:22:06.655Z,29.59
2019-05-20T14:24:39.686Z,29.11
2019-05-20T14:27:10.077Z,29.12
2019-05-20T14:29:41.260Z,29.80
2019-05-20T14:32:16.224Z,29.80
2019-05-20T14:34:46.563Z,29.50
2019-05-20T14:37:16.967Z,28.99
2019-05-20T14:39:47.822Z,29.01
2019-05-20T14:42:18.554Z,28.50
2019-05-20T14:44:49.231Z,28.40
2019-05-20T14:47:20.070Z,28.65
2019-05-20T14:49:54.145Z,28.93
2019-05-20T14:52:25.470Z,27.96
2019-05-20T14:54:55.898Z,27.59
2019-05-20T14:57:27.484Z,27.50
2019-05-20T14:59:58.116Z,27.78
2019-05-20T15:02:30.954Z,27.78
2019-05-20T15:05:02.540Z,27.51
2019-05-20T15:07:33.315Z,27.18
2019-05-20T15:10:13.965Z,26.99
2019-05-20T15:12:44.343Z,27.22
2019-05-20T15:15:17.642Z,27.63
2019-05-20T15:17:58.271Z,27.22
2019-05-20T15:20:28.658Z,26.96
2019-05-20T15:22:59.063Z,27.10
2019-05-20T15:25:31.819Z,27.33
2019-05-20T15:28:05.071Z,27.63
2019-05-20T15:30:35.593Z,26.52
2019-05-20T15:33:05.954Z,26.76
2019-05-20T15:35:37.496Z,26.54
2019-05-20T15:38:11.310Z,26.57
2019-05-20T15:40:47.659Z,26.22
2019-05-20T15:43:18.058Z,26.58
2019-05-20T15:45:50.773Z,26.16
2019-05-20T15:48:23.589Z,25.98
2019-05-20T15:50:55.364Z,25.61
2019-05-20T15:53:27.149Z,25.30
2019-05-20T15:55:57.510Z,25.14
2019-05-20T15:58:28.028Z,24.70
2019-05-20T16:00:59.308Z,24.66
2019-05-20T16:03:29.713Z,24.61
2019-05-20T16:06:02.435Z,24.72
2019-05-20T16:08:34.206Z,25.03
2019-05-20T16:11:06.998Z,25.30
2019-05-20T16:13:39.636Z,25.20
2019-05-20T16:16:12.926Z,24.77
2019-05-20T16:18:42.401Z,24.68
2019-05-20T16:21:13.368Z,23.95
2019-05-20T16:23:44.581Z,23.91
2019-05-20T16:26:15.443Z,23.87
2019-05-20T16:28:47.463Z,23.69
2019-05-20T16:31:17.939Z,23.58
2019-05-20T16:33:48.589Z,23.35
2019-05-20T16:36:19.273Z,23.33
2019-05-20T16:38:49.704Z,23.13
2019-05-20T16:41:20.210Z,22.90
2019-05-20T16:43:51.043Z,23.04
2019-05-20T16:46:21.367Z,22.96
2019-05-20T16:48:52.801Z,22.82
2019-05-20T16:51:23.188Z,22.68
2019-05-20T16:53:55.133Z,22.67
2019-05-20T16:56:25.476Z,22.30
2019-05-20T16:58:58.313Z,22.30
2019-05-20T17:01:45.302Z,22.18
2019-05-20T17:04:04.131Z,22.00
2019-05-20T17:06:36.401Z,22.02
2019-05-20T17:09:09.158Z,21.56
2019-05-20T17:11:42.802Z,21.55
2019-05-20T17:14:13.309Z,21.54
2019-05-20T17:16:45.784Z,21.33
2019-05-20T17:19:22.192Z,21.37
2019-05-20T17:21:57.421Z,21.16
2019-05-20T17:24:27.774Z,21.37
2019-05-20T17:26:58.054Z,21.18
2019-05-20T17:29:30.265Z,21.09
2019-05-20T17:32:00.582Z,21.08
2019-05-20T17:34:36.317Z,20.98
2019-05-20T17:37:06.790Z,20.78
2019-05-20T17:39:37.136Z,20.66
2019-05-20T17:42:08.162Z,20.59
2019-05-20T17:44:38.577Z,20.36
2019-05-20T17:47:08.901Z,20.42
2019-05-20T17:49:42.520Z,20.32
2019-05-20T17:52:16.747Z,20.13
2019-05-20T17:54:47.795Z,19.96
2019-05-20T17:57:22.611Z,19.82
2019-05-20T17:59:54.117Z,19.72
2019-05-20T18:02:24.970Z,19.70
2019-05-20T18:04:55.336Z,19.45
2019-05-20T18:07:27.102Z,19.32
2019-05-20T18:09:57.435Z,19.24
2019-05-20T18:12:32.175Z,19.22
2019-05-20T18:15:06.198Z,19.14
2019-05-20T18:17:36.504Z,19.00
2019-05-20T18:20:07.285Z,18.81
2019-05-20T18:22:38.036Z,18.75
2019-05-20T18:25:08.481Z,18.65
2019-05-20T18:27:45.609Z,18.62
2019-05-20T18:30:16.625Z,18.40
2019-05-20T18:32:47.076Z,18.29
2019-05-20T18:35:20.210Z,18.23
2019-05-20T18:37:50.693Z,18.09
2019-05-20T18:40:23.438Z,18.08
2019-05-20T18:42:55.381Z,18.02
2019-05-20T18:45:26.630Z,17.93
2019-05-20T18:47:56.926Z,17.82
2019-05-20T18:50:27.359Z,17.69
2019-05-20T18:52:57.632Z,17.58
2019-05-20T18:55:29.635Z,17.50
2019-05-20T18:58:00.247Z,17.39
2019-05-20T19:00:30.631Z,17.28
2019-05-20T19:03:01.100Z,17.24
2019-05-20T19:05:33.912Z,17.17
2019-05-20T19:08:04.251Z,17.12
2019-05-20T19:10:34.646Z,16.94
2019-05-20T19:13:06.861Z,16.92
2019-05-20T19:15:37.795Z,16.76
2019-05-20T19:18:10.000Z,16.73
2019-05-20T19:20:41.970Z,16.63
2019-05-20T19:23:13.456Z,16.57
2019-05-20T19:25:44.153Z,16.42
2019-05-20T19:28:14.516Z,16.37
2019-05-20T19:30:44.816Z,16.47
2019-05-20T19:33:16.973Z,16.34
2019-05-20T19:35:48.021Z,16.27
2019-05-20T19:38:18.353Z,16.27
2019-05-20T19:40:48.757Z,16.12
2019-05-20T19:43:21.668Z,16.05
2019-05-20T19:45:52.102Z,16.03
2019-05-20T19:48:23.856Z,15.99
2019-05-20T19:50:54.126Z,15.89
2019-05-20T19:53:24.465Z,15.80
2019-05-20T19:55:56.383Z,15.64
2019-05-20T19:58:26.675Z,15.52
2019-05-20T20:00:57.093Z,15.39
2019-05-20T20:03:27.641Z,15.22
2019-05-20T20:05:57.992Z,15.01
2019-05-20T20:08:28.684Z,14.88
2019-05-20T20:10:59.406Z,14.78
2019-05-20T20:13:29.566Z,14.91
2019-05-20T20:15:59.878Z,14.99
2019-05-20T20:18:32.279Z,15.09
2019-05-20T20:21:05.102Z,15.11
2019-05-20T20:23:36.635Z,14.96
2019-05-20T20:26:07.264Z,14.77
2019-05-20T20:28:37.572Z,14.70
2019-05-20T20:31:10.885Z,14.84
2019-05-20T20:33:40.341Z,14.84
2019-05-20T20:36:10.728Z,14.75
2019-05-20T20:38:41.195Z,14.63
2019-05-20T20:41:11.518Z,14.54
2019-05-20T20:43:42.914Z,14.33
2019-05-20T20:46:14.545Z,14.30
2019-05-20T20:48:45.259Z,14.13
2019-05-20T20:51:15.835Z,14.16
2019-05-20T20:53:46.480Z,14.34
2019-05-20T20:56:25.151Z,14.40
2019-05-20T20:58:55.260Z,14.52
2019-05-20T21:01:25.595Z,14.50
2019-05-20T21:04:00.040Z,14.52
2019-05-20T21:06:30.412Z,14.39
2019-05-20T21:09:05.943Z,14.34
2019-05-20T21:11:37.924Z,14.30
2019-05-20T21:14:10.082Z,14.34
2019-05-20T21:16:40.848Z,14.24
2019-05-20T21:19:11.209Z,14.21
2019-05-20T21:21:41.810Z,14.09
2019-05-20T21:24:12.191Z,13.95
2019-05-20T21:26:43.484Z,13.88
2019-05-20T21:29:32.601Z,13.75
2019-05-20T21:32:05.275Z,13.75
2019-05-20T21:34:36.288Z,13.73
2019-05-20T21:37:06.558Z,13.67
2019-05-20T21:39:38.810Z,13.59
2019-05-20T21:42:09.508Z,13.45
2019-05-20T21:44:40.187Z,13.49
2019-05-20T21:47:10.493Z,13.47
2019-05-20T21:49:40.784Z,13.54
2019-05-20T21:52:11.520Z,13.47
2019-05-20T21:54:44.191Z,13.54
2019-05-20T21:57:14.508Z,13.49
2019-05-20T21:59:44.911Z,13.42
2019-05-20T22:02:17.513Z,13.33
2019-05-20T22:04:48.722Z,13.31
2019-05-20T22:07:19.322Z,13.16
2019-05-20T22:09:52.027Z,13.10
2019-05-20T22:12:22.327Z,12.98
2019-05-20T22:14:54.674Z,12.93
2019-05-20T22:17:32.685Z,12.93
2019-05-20T22:20:04.591Z,12.94
2019-05-20T22:22:44.022Z,12.98
2019-05-20T22:25:14.152Z,13.00
2019-05-20T22:27:44.447Z,13.04
2019-05-20T22:30:15.126Z,13.00
2019-05-20T22:32:45.865Z,13.00
2019-05-20T22:35:16.591Z,12.96
2019-05-20T22:37:47.868Z,12.96
2019-05-20T22:40:19.035Z,12.98
2019-05-20T22:42:49.462Z,12.97
2019-05-20T22:45:20.263Z,12.89
2019-05-20T22:47:50.610Z,12.85
2019-05-20T22:50:28.909Z,12.86
2019-05-20T22:52:59.670Z,12.87
2019-05-20T22:55:30.259Z,12.94
2019-05-20T22:58:01.386Z,12.98
2019-05-20T23:00:33.325Z,13.05
2019-05-20T23:03:05.277Z,13.09
2019-05-20T23:05:35.552Z,13.12
2019-05-20T23:08:05.930Z,13.12
2019-05-20T23:10:36.195Z,13.13
2019-05-20T23:13:06.468Z,13.10
2019-05-20T23:15:37.297Z,13.11
2019-05-20T23:18:07.593Z,13.10
2019-05-20T23:20:37.946Z,13.06
2019-05-20T23:23:08.245Z,13.08
2019-05-20T23:25:43.824Z,13.02
2019-05-20T23:28:14.132Z,13.01
2019-05-20T23:30:44.808Z,13.00
2019-05-20T23:33:15.220Z,13.02
2019-05-20T23:35:45.894Z,12.99
2019-05-20T23:38:16.173Z,12.98
2019-05-20T23:40:46.483Z,12.87
2019-05-20T23:43:17.777Z,12.74
2019-05-20T23:45:48.381Z,12.68
2019-05-20T23:48:19.806Z,12.57
2019-05-20T23:50:50.446Z,12.46
2019-05-20T23:53:20.738Z,12.40
2019-05-20T23:55:52.699Z,12.34
2019-05-20T23:58:22.983Z,12.27
